Kezdőlap
METAR-TAF:

METAR-TAF

Repülőterek :

Weatherford, Oklahoma, Amerikai Egyesült Államok

földrajzi szélesség: 35-32-45N, földrajzi hosszúság: 098-40-07W, magasság: 489 m

Jelenlegi meteorológiai megfigyelések

A jelentés 31 perccel ezelõtt készült, 01:35 UTC
Déli szél 10 kt széllökések: 15 kt
Hőmérséklet 31°C
Páratartalom 43%
Légköri nyomás 1017 hPa
Látótávolság: 16.1 km
Derült ég

METAR: KOJA 220135Z AUTO 18010G15KT 10SM CLR 31/17 A3004 RMK AO2 T03140171

Idő: 21:06 (02:06 UTC)


TAF: hiányzik

Meteorológiai megfigyelések és előrejelzések több, mint 4000 repülőtéren (METAR és TAF jelentéseket).

A térképen piros és sárga pontok jelzik az elérhető meteorológiai állomásokat.

Mozgassa az egeret a pont fölött, hogy megjelenjen az állomás neve.

Azután kattintson az időjárási megfigyelések és előrejelzések megtekintéséhez.

A térkép megváltoztatása: kattintson a fekete keresztel jelölt zöld gombra ráközelítéshez, a vonallal jelölt zöld gombra távolításhoz, vagy a zöld nyilakra a szomszédos térképek eléréséhez.


METAR-TAF: